createdAt,value
2019-04-21T00:00:32.173Z,12.86
2019-04-21T00:06:02.982Z,12.72
2019-04-21T00:11:22.120Z,12.12
2019-04-21T00:15:54.999Z,12.56
2019-04-21T00:21:21.137Z,13.30
2019-04-21T00:26:17.047Z,13.46
2019-04-21T00:31:23.018Z,13.68
2019-04-21T00:36:15.979Z,12.94
2019-04-21T00:41:39.588Z,13.24
2019-04-21T00:46:51.941Z,13.41
2019-04-21T00:56:50.022Z,13.46
2019-04-21T01:01:55.445Z,13.19
2019-04-21T01:07:09.348Z,14.11
2019-04-21T01:12:03.809Z,13.87
2019-04-21T01:17:14.579Z,14.16
2019-04-21T01:21:54.603Z,13.74
2019-04-21T01:27:11.132Z,14.33
2019-04-21T01:32:31.248Z,14.13
2019-04-21T01:42:53.947Z,13.94
2019-04-21T01:47:31.504Z,14.14
2019-04-21T01:52:51.415Z,14.24
2019-04-21T01:57:42.635Z,13.96
2019-04-21T02:08:03.643Z,13.92
2019-04-21T02:13:14.469Z,14.26
2019-04-21T02:18:33.370Z,14.45
2019-04-21T02:23:34.351Z,14.04
2019-04-21T02:28:36.731Z,15.17
2019-04-21T02:33:54.242Z,14.83
2019-04-21T02:39:15.707Z,15.77
2019-04-21T02:49:11.212Z,15.55
2019-04-21T02:54:35.994Z,15.16
2019-04-21T03:04:18.819Z,15.35
2019-04-21T03:09:35.849Z,14.58
2019-04-21T03:24:39.914Z,15.11
2019-04-21T03:29:59.423Z,14.70
2019-04-21T03:35:25.676Z,15.79
2019-04-21T03:45:27.151Z,15.54
2019-04-21T03:55:41.511Z,15.75
2019-04-21T04:00:33.732Z,16.13
2019-04-21T04:10:50.390Z,16.43
2019-04-21T04:15:39.060Z,15.74
2019-04-21T04:20:28.061Z,15.55
2019-04-21T04:25:35.467Z,16.47
2019-04-21T04:30:54.271Z,17.00
2019-04-21T04:36:30.206Z,16.52
2019-04-21T04:41:06.142Z,16.94
2019-04-21T04:46:09.592Z,16.97
2019-04-21T04:56:06.002Z,16.56
2019-04-21T05:06:37.243Z,17.29
2019-04-21T05:26:28.602Z,16.87
2019-04-21T05:31:47.704Z,17.38
2019-04-21T05:36:50.320Z,17.59
2019-04-21T05:41:47.801Z,18.40
2019-04-21T05:52:03.739Z,19.04
2019-04-21T05:57:11.816Z,18.74
2019-04-21T06:02:24.251Z,18.57
2019-04-21T06:12:29.904Z,17.90
2019-04-21T06:17:44.189Z,17.27
2019-04-21T06:23:06.269Z,18.88
2019-04-21T06:27:45.816Z,17.69
2019-04-21T06:38:22.270Z,17.73
2019-04-21T06:43:22.794Z,19.23
2019-04-21T06:58:26.277Z,23.01
2019-04-21T07:03:38.703Z,23.67
2019-04-21T07:08:46.430Z,24.73
2019-04-21T07:13:44.097Z,24.84
2019-04-21T07:19:03.984Z,24.29
2019-04-21T07:24:12.678Z,24.30
2019-04-21T07:29:14.284Z,23.54
2019-04-21T07:34:21.638Z,22.78
2019-04-21T07:39:22.121Z,23.00
2019-04-21T07:44:34.935Z,22.05
2019-04-21T07:49:32.892Z,19.56
2019-04-21T07:54:37.368Z,19.47
2019-04-21T08:00:04.115Z,18.78
2019-04-21T08:05:04.116Z,18.74
2019-04-21T08:09:56.996Z,19.38
2019-04-21T08:15:15.471Z,21.11
2019-04-21T08:20:27.029Z,19.55
2019-04-21T08:25:16.498Z,20.05
2019-04-21T08:30:27.509Z,20.46
2019-04-21T08:40:45.149Z,21.10
2019-04-21T08:45:35.913Z,19.09
2019-04-21T08:56:04.144Z,20.47
2019-04-21T09:00:46.817Z,19.43
2019-04-21T09:05:59.762Z,20.01
2019-04-21T09:10:59.390Z,19.45
2019-04-21T09:16:21.994Z,18.47
2019-04-21T09:21:16.275Z,18.15
2019-04-21T09:26:18.607Z,18.09
2019-04-21T09:31:08.584Z,17.32
2019-04-21T09:36:18.494Z,16.95
2019-04-21T09:41:16.393Z,16.57
2019-04-21T09:46:09.606Z,17.08
2019-04-21T09:51:17.867Z,17.19
2019-04-21T09:56:35.911Z,16.94
2019-04-21T10:01:54.970Z,16.24
2019-04-21T10:06:33.002Z,16.98
2019-04-21T10:11:39.919Z,16.81
2019-04-21T10:38:44.720Z,29.93
2019-04-21T10:43:38.241Z,19.07
2019-04-21T10:48:46.945Z,18.88
2019-04-21T10:53:54.664Z,18.67
2019-04-21T10:59:14.539Z,17.54
2019-04-21T11:04:21.830Z,16.61
2019-04-21T11:09:03.699Z,16.74
2019-04-21T11:14:13.378Z,17.40
2019-04-21T11:19:32.825Z,17.02
2019-04-21T11:24:33.250Z,15.74
2019-04-21T11:29:34.975Z,16.14
2019-04-21T11:34:34.186Z,16.62
2019-04-21T11:39:29.234Z,15.46
2019-04-21T11:44:42.450Z,16.00
2019-04-21T11:49:43.157Z,14.48
2019-04-21T11:59:47.986Z,15.04
2019-04-21T12:04:47.583Z,14.40
2019-04-21T12:09:35.429Z,14.90
2019-04-21T12:14:45.812Z,15.18
2019-04-21T12:19:52.687Z,15.01
2019-04-21T12:25:13.277Z,15.38
2019-04-21T12:30:13.561Z,15.12
2019-04-21T12:35:15.882Z,14.83
2019-04-21T12:40:03.334Z,15.10
2019-04-21T12:45:24.037Z,16.05
2019-04-21T12:50:23.652Z,16.40
2019-04-21T12:55:30.663Z,15.76
2019-04-21T13:00:24.810Z,14.07
2019-04-21T13:05:25.319Z,15.53
2019-04-21T13:10:24.471Z,13.97
2019-04-21T13:15:25.409Z,14.21
2019-04-21T13:20:25.397Z,16.01
2019-04-21T13:25:13.957Z,15.40
2019-04-21T13:30:20.193Z,14.22
2019-04-21T13:40:53.376Z,17.32
2019-04-21T13:45:32.184Z,19.62
2019-04-21T13:50:39.518Z,11.59
2019-04-21T13:55:46.832Z,13.47
2019-04-21T14:06:16.231Z,12.30
2019-04-21T14:11:17.523Z,12.03
2019-04-21T14:16:04.086Z,12.56
2019-04-21T14:22:20.118Z,14.90
2019-04-21T14:32:34.050Z,11.24
2019-04-21T14:37:22.626Z,10.62
2019-04-21T14:42:42.741Z,11.26
2019-04-21T14:47:31.525Z,10.79
2019-04-21T14:52:39.169Z,10.25
2019-04-21T14:57:47.384Z,10.56
2019-04-21T15:03:07.647Z,10.59
2019-04-21T15:12:56.292Z,11.09
2019-04-21T15:28:30.684Z,10.40
2019-04-21T15:33:16.272Z,10.97
2019-04-21T15:43:40.567Z,10.86
2019-04-21T15:48:41.196Z,10.15
2019-04-21T15:53:41.641Z,10.67
2019-04-21T15:58:28.375Z,10.36
2019-04-21T16:03:49.053Z,9.78
2019-04-21T16:08:52.506Z,10.77
2019-04-21T16:13:37.372Z,9.89
2019-04-21T16:18:43.767Z,10.95
2019-04-21T16:23:56.228Z,10.73
2019-04-21T16:29:15.459Z,10.45
2019-04-21T16:34:03.122Z,9.84
2019-04-21T16:39:09.559Z,9.66
2019-04-21T16:49:21.960Z,9.27
2019-04-21T16:54:28.158Z,9.01
2019-04-21T16:59:48.598Z,9.29
2019-04-21T17:04:48.878Z,9.46
2019-04-21T17:15:07.594Z,8.85
2019-04-21T17:19:45.614Z,9.20
2019-04-21T17:24:50.505Z,8.90
2019-04-21T17:30:10.574Z,9.48
2019-04-21T17:35:10.190Z,9.79
2019-04-21T17:39:58.749Z,9.35
2019-04-21T17:45:19.347Z,9.32
2019-04-21T17:50:07.658Z,9.42
2019-04-21T17:55:21.898Z,9.79
2019-04-21T18:05:54.621Z,8.84
2019-04-21T18:10:34.855Z,9.83
2019-04-21T18:20:50.164Z,9.23
2019-04-21T18:25:57.841Z,8.54
2019-04-21T18:30:49.995Z,8.13
2019-04-21T18:35:52.931Z,7.47
2019-04-21T18:40:41.411Z,8.11
2019-04-21T18:46:20.519Z,7.80
2019-04-21T18:51:02.996Z,7.62
2019-04-21T18:56:04.894Z,7.69
2019-04-21T19:00:45.911Z,7.91
2019-04-21T19:05:59.393Z,8.17
2019-04-21T19:11:18.926Z,8.16
2019-04-21T19:16:38.683Z,8.91
2019-04-21T19:21:52.501Z,8.22
2019-04-21T19:26:52.347Z,7.35
2019-04-21T19:31:49.278Z,9.03
2019-04-21T19:41:28.047Z,9.16
2019-04-21T19:47:01.281Z,9.59
2019-04-21T19:51:52.195Z,9.29
2019-04-21T19:56:43.001Z,10.17
2019-04-21T20:01:29.691Z,10.05
2019-04-21T20:11:58.099Z,12.12
2019-04-21T20:17:17.630Z,11.47
2019-04-21T20:22:05.378Z,11.63
2019-04-21T20:27:14.128Z,11.79
2019-04-21T20:32:35.103Z,11.84
2019-04-21T20:37:19.047Z,12.35
2019-04-21T20:42:24.307Z,12.84
2019-04-21T20:47:23.172Z,17.57
2019-04-21T20:52:36.989Z,15.13
2019-04-21T20:57:30.020Z,15.33
2019-04-21T21:02:36.576Z,15.52
2019-04-21T21:12:43.205Z,13.96
2019-04-21T21:22:39.277Z,13.98
2019-04-21T21:27:32.234Z,13.70
2019-04-21T21:32:37.332Z,13.18
2019-04-21T21:37:37.089Z,14.43
2019-04-21T21:42:08.059Z,13.87
2019-04-21T21:47:49.925Z,14.81
2019-04-21T21:52:25.819Z,16.16
2019-04-21T21:57:44.352Z,16.16
2019-04-21T22:02:40.750Z,16.44
2019-04-21T22:07:37.149Z,16.34
2019-04-21T22:12:22.768Z,17.02
2019-04-21T22:18:06.052Z,16.64
2019-04-21T22:27:46.910Z,16.88
2019-04-21T22:32:53.323Z,15.88
2019-04-21T22:37:48.779Z,16.29
2019-04-21T22:43:07.390Z,17.11
2019-04-21T22:48:02.992Z,16.95
2019-04-21T22:52:59.501Z,17.05
2019-04-21T22:57:58.689Z,18.27
2019-04-21T23:03:03.183Z,18.03
2019-04-21T23:08:01.369Z,18.48
2019-04-21T23:12:59.552Z,17.38
2019-04-21T23:18:17.705Z,17.70
2019-04-21T23:23:17.647Z,17.99
2019-04-21T23:28:11.499Z,18.11
2019-04-21T23:32:52.648Z,18.96
2019-04-21T23:38:07.257Z,18.25
2019-04-21T23:43:10.647Z,18.58
2019-04-21T23:48:01.663Z,20.12
2019-04-21T23:58:06.989Z,19.62
